sensor_id;sensor_type;location;lat;lon;timestamp;pressure;altitude;pressure_sealevel;temperature;humidity
16094;BME280;8151;47.824;12.092;2022-07-04T00:00:29;96370.34;;;23.08;56.43
16094;BME280;8151;47.824;12.092;2022-07-04T00:02:58;96372.22;;;23.07;56.38
16094;BME280;8151;47.824;12.092;2022-07-04T00:05:28;96379.34;;;23.13;56.55
16094;BME280;8151;47.824;12.092;2022-07-04T00:07:57;96385.53;;;23.14;56.42
16094;BME280;8151;47.824;12.092;2022-07-04T00:10:26;96386.22;;;23.04;56.64
16094;BME280;8151;47.824;12.092;2022-07-04T00:12:55;96389.97;;;23.03;56.69
16094;BME280;8151;47.824;12.092;2022-07-04T00:15:24;96385.22;;;23.10;56.83
16094;BME280;8151;47.824;12.092;2022-07-04T00:17:52;96391.06;;;23.24;56.56
16094;BME280;8151;47.824;12.092;2022-07-04T00:20:21;96392.94;;;23.41;56.34
16094;BME280;8151;47.824;12.092;2022-07-04T00:22:51;96392.59;;;23.54;55.92
16094;BME280;8151;47.824;12.092;2022-07-04T00:25:19;96398.09;;;23.64;56.09
16094;BME280;8151;47.824;12.092;2022-07-04T00:27:48;96391.91;;;23.64;56.22
16094;BME280;8151;47.824;12.092;2022-07-04T00:30:16;96406.91;;;23.54;56.74
16094;BME280;8151;47.824;12.092;2022-07-04T00:32:45;96398.66;;;23.44;57.31
16094;BME280;8151;47.824;12.092;2022-07-04T00:35:13;96405.72;;;23.28;57.89
16094;BME280;8151;47.824;12.092;2022-07-04T00:37:42;96412.66;;;23.24;58.23
16094;BME280;8151;47.824;12.092;2022-07-04T00:40:12;96416.88;;;23.15;58.33
16094;BME280;8151;47.824;12.092;2022-07-04T00:42:41;96427.50;;;23.05;58.81
16094;BME280;8151;47.824;12.092;2022-07-04T00:45:10;96455.19;;;23.00;58.97
16094;BME280;8151;47.824;12.092;2022-07-04T00:47:38;96457.16;;;22.88;59.23
16094;BME280;8151;47.824;12.092;2022-07-04T00:50:07;96459.44;;;22.79;59.14
16094;BME280;8151;47.824;12.092;2022-07-04T00:52:37;96465.56;;;22.74;58.68
16094;BME280;8151;47.824;12.092;2022-07-04T00:55:07;96458.75;;;22.72;58.30
16094;BME280;8151;47.824;12.092;2022-07-04T00:57:39;96451.81;;;22.76;57.77
16094;BME280;8151;47.824;12.092;2022-07-04T01:00:09;96449.78;;;22.83;57.50
16094;BME280;8151;47.824;12.092;2022-07-04T01:02:37;96457.75;;;22.90;57.17
16094;BME280;8151;47.824;12.092;2022-07-04T01:05:06;96451.59;;;22.94;57.13
16094;BME280;8151;47.824;12.092;2022-07-04T01:07:36;96460.34;;;23.02;57.03
16094;BME280;8151;47.824;12.092;2022-07-04T01:10:05;96459.50;;;23.01;57.11
16094;BME280;8151;47.824;12.092;2022-07-04T01:12:35;96455.44;;;22.98;57.31
16094;BME280;8151;47.824;12.092;2022-07-04T01:15:07;96460.75;;;22.93;57.62
16094;BME280;8151;47.824;12.092;2022-07-04T01:17:36;96465.09;;;22.94;57.77
16094;BME280;8151;47.824;12.092;2022-07-04T01:20:05;96474.56;;;22.97;57.84
16094;BME280;8151;47.824;12.092;2022-07-04T01:22:35;96476.34;;;22.91;58.26
16094;BME280;8151;47.824;12.092;2022-07-04T01:25:05;96480.59;;;22.87;58.40
16094;BME280;8151;47.824;12.092;2022-07-04T01:27:33;96475.78;;;22.89;58.40
16094;BME280;8151;47.824;12.092;2022-07-04T01:30:02;96468.53;;;22.90;58.65
16094;BME280;8151;47.824;12.092;2022-07-04T01:32:31;96478.81;;;22.93;58.45
16094;BME280;8151;47.824;12.092;2022-07-04T01:34:59;96479.16;;;22.96;58.68
16094;BME280;8151;47.824;12.092;2022-07-04T01:37:28;96481.28;;;22.94;59.21
16094;BME280;8151;47.824;12.092;2022-07-04T01:39:58;96474.72;;;22.90;60.06
16094;BME280;8151;47.824;12.092;2022-07-04T01:42:26;96481.19;;;22.89;60.64
16094;BME280;8151;47.824;12.092;2022-07-04T01:44:55;96483.88;;;22.89;60.84
16094;BME280;8151;47.824;12.092;2022-07-04T01:47:23;96504.81;;;22.82;61.54
16094;BME280;8151;47.824;12.092;2022-07-04T01:49:52;96513.38;;;22.79;62.23
16094;BME280;8151;47.824;12.092;2022-07-04T01:52:20;96529.34;;;22.80;62.63
16094;BME280;8151;47.824;12.092;2022-07-04T01:54:49;96525.56;;;22.81;63.07
16094;BME280;8151;47.824;12.092;2022-07-04T01:57:19;96524.75;;;22.81;63.62
16094;BME280;8151;47.824;12.092;2022-07-04T01:59:47;96521.25;;;22.80;64.15
16094;BME280;8151;47.824;12.092;2022-07-04T02:02:33;96526.41;;;22.82;63.91
16094;BME280;8151;47.824;12.092;2022-07-04T02:05:02;96532.03;;;22.80;63.71
16094;BME280;8151;47.824;12.092;2022-07-04T02:07:31;96535.69;;;22.74;63.78
16094;BME280;8151;47.824;12.092;2022-07-04T02:09:59;96550.28;;;22.61;63.86
16094;BME280;8151;47.824;12.092;2022-07-04T02:12:29;96546.94;;;22.42;64.28
16094;BME280;8151;47.824;12.092;2022-07-04T02:15:17;96555.41;;;22.22;64.82
16094;BME280;8151;47.824;12.092;2022-07-04T02:17:46;96561.16;;;22.14;65.31
16094;BME280;8151;47.824;12.092;2022-07-04T02:20:14;96563.88;;;22.02;65.83
16094;BME280;8151;47.824;12.092;2022-07-04T02:22:43;96560.59;;;21.89;66.42
16094;BME280;8151;47.824;12.092;2022-07-04T02:25:12;96558.47;;;21.79;66.72
16094;BME280;8151;47.824;12.092;2022-07-04T02:27:41;96546.09;;;21.66;67.09
16094;BME280;8151;47.824;12.092;2022-07-04T02:30:11;96540.00;;;21.59;67.24
16094;BME280;8151;47.824;12.092;2022-07-04T02:32:41;96534.47;;;21.54;67.34
16094;BME280;8151;47.824;12.092;2022-07-04T02:35:10;96513.44;;;21.51;67.62
16094;BME280;8151;47.824;12.092;2022-07-04T02:37:39;96502.88;;;21.49;67.61
16094;BME280;8151;47.824;12.092;2022-07-04T02:40:08;96483.22;;;21.49;67.72
16094;BME280;8151;47.824;12.092;2022-07-04T02:42:37;96467.66;;;21.51;67.92
16094;BME280;8151;47.824;12.092;2022-07-04T02:45:08;96450.13;;;21.48;68.33
16094;BME280;8151;47.824;12.092;2022-07-04T02:47:37;96432.53;;;21.46;68.48
16094;BME280;8151;47.824;12.092;2022-07-04T02:50:06;96422.63;;;21.46;68.75
16094;BME280;8151;47.824;12.092;2022-07-04T02:52:34;96422.63;;;21.46;68.97
16094;BME280;8151;47.824;12.092;2022-07-04T02:55:04;96443.88;;;21.48;69.16
16094;BME280;8151;47.824;12.092;2022-07-04T02:57:32;96444.25;;;21.51;69.48
16094;BME280;8151;47.824;12.092;2022-07-04T03:00:07;96439.22;;;21.55;69.63
16094;BME280;8151;47.824;12.092;2022-07-04T03:02:36;96449.03;;;21.61;69.60
16094;BME280;8151;47.824;12.092;2022-07-04T03:05:05;96427.63;;;21.66;69.66
16094;BME280;8151;47.824;12.092;2022-07-04T03:07:34;96417.88;;;21.65;69.39
16094;BME280;8151;47.824;12.092;2022-07-04T03:10:03;96419.06;;;21.57;69.42
16094;BME280;8151;47.824;12.092;2022-07-04T03:12:32;96444.47;;;21.50;69.70
16094;BME280;8151;47.824;12.092;2022-07-04T03:15:00;96417.19;;;21.34;70.07
16094;BME280;8151;47.824;12.092;2022-07-04T03:17:30;96411.81;;;21.22;70.37
16094;BME280;8151;47.824;12.092;2022-07-04T03:19:59;96430.19;;;21.14;70.68
16094;BME280;8151;47.824;12.092;2022-07-04T03:22:27;96433.47;;;21.04;70.95
16094;BME280;8151;47.824;12.092;2022-07-04T03:24:56;96430.19;;;21.02;71.16
16094;BME280;8151;47.824;12.092;2022-07-04T03:27:24;96437.44;;;21.01;71.16
16094;BME280;8151;47.824;12.092;2022-07-04T03:29:53;96433.69;;;21.02;71.11
16094;BME280;8151;47.824;12.092;2022-07-04T03:32:21;96435.56;;;21.02;71.04
16094;BME280;8151;47.824;12.092;2022-07-04T03:34:51;96428.31;;;21.02;71.05
16094;BME280;8151;47.824;12.092;2022-07-04T03:37:19;96426.44;;;21.03;71.02
16094;BME280;8151;47.824;12.092;2022-07-04T03:39:48;96432.88;;;21.02;71.21
16094;BME280;8151;47.824;12.092;2022-07-04T03:42:17;96433.69;;;21.02;71.17
16094;BME280;8151;47.824;12.092;2022-07-04T03:44:45;96441.53;;;21.04;71.12
16094;BME280;8151;47.824;12.092;2022-07-04T03:47:14;96439.88;;;21.03;71.24
16094;BME280;8151;47.824;12.092;2022-07-04T03:49:43;96437.44;;;21.01;71.15
16094;BME280;8151;47.824;12.092;2022-07-04T03:52:13;96428.31;;;21.02;71.01
16094;BME280;8151;47.824;12.092;2022-07-04T03:54:42;96450.91;;;21.01;71.07
16094;BME280;8151;47.824;12.092;2022-07-04T03:57:12;96453.59;;;21.01;71.19
16094;BME280;8151;47.824;12.092;2022-07-04T03:59:40;96456.88;;;21.03;70.99
16094;BME280;8151;47.824;12.092;2022-07-04T04:02:09;96463.88;;;21.04;71.07
16094;BME280;8151;47.824;12.092;2022-07-04T04:04:37;96462.34;;;21.09;70.92
16094;BME280;8151;47.824;12.092;2022-07-04T04:07:25;96462.94;;;21.11;70.84
16094;BME280;8151;47.824;12.092;2022-07-04T04:09:53;96469.47;;;21.15;70.51
16094;BME280;8151;47.824;12.092;2022-07-04T04:12:22;96460.72;;;21.19;70.37
16094;BME280;8151;47.824;12.092;2022-07-04T04:14:50;96479.34;;;21.21;70.24
16094;BME280;8151;47.824;12.092;2022-07-04T04:17:19;96478.03;;;21.23;70.14
16094;BME280;8151;47.824;12.092;2022-07-04T04:19:47;96479.66;;;21.24;70.39
16094;BME280;8151;47.824;12.092;2022-07-04T04:22:16;96468.09;;;21.24;70.29
16094;BME280;8151;47.824;12.092;2022-07-04T04:24:45;96471.38;;;21.26;70.51
16094;BME280;8151;47.824;12.092;2022-07-04T04:27:14;96485.19;;;21.30;70.39
16094;BME280;8151;47.824;12.092;2022-07-04T04:29:43;96482.72;;;21.28;70.30
16094;BME280;8151;47.824;12.092;2022-07-04T04:32:11;96487.06;;;21.29;70.60
16094;BME280;8151;47.824;12.092;2022-07-04T04:34:40;96483.06;;;21.32;70.53
16094;BME280;8151;47.824;12.092;2022-07-04T04:37:09;96482.38;;;21.36;70.61
16094;BME280;8151;47.824;12.092;2022-07-04T04:39:37;96491.88;;;21.39;70.76
16094;BME280;8151;47.824;12.092;2022-07-04T04:42:08;96494.91;;;21.42;70.85
16094;BME280;8151;47.824;12.092;2022-07-04T04:44:36;96499.03;;;21.45;70.94
16094;BME280;8151;47.824;12.092;2022-07-04T04:47:05;96512.84;;;21.49;71.04
16094;BME280;8151;47.824;12.092;2022-07-04T04:49:34;96506.16;;;21.51;71.08
16094;BME280;8151;47.824;12.092;2022-07-04T04:52:03;96511.09;;;21.54;71.18
16094;BME280;8151;47.824;12.092;2022-07-04T04:54:33;96528.41;;;21.58;71.18
16094;BME280;8151;47.824;12.092;2022-07-04T04:57:02;96532.50;;;21.61;71.22
16094;BME280;8151;47.824;12.092;2022-07-04T04:59:32;96533.56;;;21.60;71.39
16094;BME280;8151;47.824;12.092;2022-07-04T05:02:01;96524.34;;;21.56;71.63
16094;BME280;8151;47.824;12.092;2022-07-04T05:04:30;96523.84;;;21.59;71.76
16094;BME280;8151;47.824;12.092;2022-07-04T05:06:58;96525.00;;;21.63;71.69
16094;BME280;8151;47.824;12.092;2022-07-04T05:09:27;96535.09;;;21.68;71.58
16094;BME280;8151;47.824;12.092;2022-07-04T05:11:56;96533.78;;;21.70;71.61
16094;BME280;8151;47.824;12.092;2022-07-04T05:14:24;96535.41;;;21.71;71.79
16094;BME280;8151;47.824;12.092;2022-07-04T05:16:54;96538.38;;;21.70;72.05
16094;BME280;8151;47.824;12.092;2022-07-04T05:19:23;96545.38;;;21.71;72.20
16094;BME280;8151;47.824;12.092;2022-07-04T05:21:52;96542.81;;;21.64;72.45
16094;BME280;8151;47.824;12.092;2022-07-04T05:24:20;96552.16;;;21.50;73.04
16094;BME280;8151;47.824;12.092;2022-07-04T05:26:49;96541.00;;;21.34;73.72
16094;BME280;8151;47.824;12.092;2022-07-04T05:29:23;96549.19;;;21.28;74.02
16094;BME280;8151;47.824;12.092;2022-07-04T05:31:52;96553.88;;;21.32;74.12
16094;BME280;8151;47.824;12.092;2022-07-04T05:34:22;96546.50;;;21.39;73.93
16094;BME280;8151;47.824;12.092;2022-07-04T05:36:50;96555.44;;;21.52;73.93
16094;BME280;8151;47.824;12.092;2022-07-04T05:39:19;96564.13;;;21.66;73.44
16094;BME280;8151;47.824;12.092;2022-07-04T05:41:47;96564.72;;;21.68;73.33
16094;BME280;8151;47.824;12.092;2022-07-04T05:44:16;96572.22;;;21.66;73.68
16094;BME280;8151;47.824;12.092;2022-07-04T05:46:44;96591.06;;;21.66;73.78
16094;BME280;8151;47.824;12.092;2022-07-04T05:49:13;96582.97;;;21.66;74.00
16094;BME280;8151;47.824;12.092;2022-07-04T05:51:43;96591.06;;;21.66;74.11
16094;BME280;8151;47.824;12.092;2022-07-04T05:54:13;96592.09;;;21.65;74.34
16094;BME280;8151;47.824;12.092;2022-07-04T05:56:41;96603.69;;;21.65;74.54
16094;BME280;8151;47.824;12.092;2022-07-04T05:59:10;96604.63;;;21.59;74.86
16094;BME280;8151;47.824;12.092;2022-07-04T06:01:39;96609.31;;;21.63;74.98
16094;BME280;8151;47.824;12.092;2022-07-04T06:04:08;96621.28;;;21.68;74.78
16094;BME280;8151;47.824;12.092;2022-07-04T06:06:36;96616.91;;;21.67;74.98
16094;BME280;8151;47.824;12.092;2022-07-04T06:09:07;96624.53;;;21.70;75.08
16094;BME280;8151;47.824;12.092;2022-07-04T06:11:41;96632.06;;;21.79;74.84
16094;BME280;8151;47.824;12.092;2022-07-04T06:14:10;96637.09;;;21.88;74.71
16094;BME280;8151;47.824;12.092;2022-07-04T06:16:39;96627.47;;;21.92;74.45
16094;BME280;8151;47.824;12.092;2022-07-04T06:19:08;96633.59;;;21.99;74.22
16094;BME280;8151;47.824;12.092;2022-07-04T06:21:36;96626.66;;;22.03;74.24
16094;BME280;8151;47.824;12.092;2022-07-04T06:24:06;96628.06;;;22.17;73.88
16094;BME280;8151;47.824;12.092;2022-07-04T06:26:36;96633.81;;;22.33;73.57
16094;BME280;8151;47.824;12.092;2022-07-04T06:29:04;96629.72;;;22.42;73.17
16094;BME280;8151;47.824;12.092;2022-07-04T06:31:33;96626.28;;;22.47;72.99
16094;BME280;8151;47.824;12.092;2022-07-04T06:34:02;96630.41;;;22.49;73.00
16094;BME280;8151;47.824;12.092;2022-07-04T06:36:48;96644.56;;;22.56;72.69
16094;BME280;8151;47.824;12.092;2022-07-04T06:39:18;96644.31;;;22.58;72.80
16094;BME280;8151;47.824;12.092;2022-07-04T06:41:46;96649.13;;;22.68;72.60
16094;BME280;8151;47.824;12.092;2022-07-04T06:44:15;96654.38;;;22.74;72.49
16094;BME280;8151;47.824;12.092;2022-07-04T06:46:43;96649.41;;;22.83;72.17
16094;BME280;8151;47.824;12.092;2022-07-04T06:49:13;96655.28;;;22.92;71.89
16094;BME280;8151;47.824;12.092;2022-07-04T06:51:41;96654.31;;;22.98;71.82
16094;BME280;8151;47.824;12.092;2022-07-04T06:54:10;96650.44;;;23.06;71.70
16094;BME280;8151;47.824;12.092;2022-07-04T06:56:43;96642.53;;;23.16;71.47
16094;BME280;8151;47.824;12.092;2022-07-04T06:59:12;96645.75;;;23.30;70.91
16094;BME280;8151;47.824;12.092;2022-07-04T07:01:40;96648.88;;;23.38;70.92
16094;BME280;8151;47.824;12.092;2022-07-04T07:04:09;96653.31;;;23.45;70.69
16094;BME280;8151;47.824;12.092;2022-07-04T07:06:38;96651.75;;;23.49;70.90
16094;BME280;8151;47.824;12.092;2022-07-04T07:09:07;96652.66;;;23.54;70.76
16094;BME280;8151;47.824;12.092;2022-07-04T07:11:35;96652.34;;;23.51;70.49
16094;BME280;8151;47.824;12.092;2022-07-04T07:14:05;96642.50;;;23.45;70.37
16094;BME280;8151;47.824;12.092;2022-07-04T07:16:34;96657.63;;;23.46;69.87
16094;BME280;8151;47.824;12.092;2022-07-04T07:19:02;96656.00;;;23.45;69.67
16094;BME280;8151;47.824;12.092;2022-07-04T07:21:31;96655.19;;;23.44;68.90
16094;BME280;8151;47.824;12.092;2022-07-04T07:24:00;96656.00;;;23.45;68.24
16094;BME280;8151;47.824;12.092;2022-07-04T07:26:31;96655.69;;;23.41;68.00
16094;BME280;8151;47.824;12.092;2022-07-04T07:28:59;96650.44;;;23.34;67.18
16094;BME280;8151;47.824;12.092;2022-07-04T07:31:29;96643.88;;;23.30;66.91
16094;BME280;8151;47.824;12.092;2022-07-04T07:33:58;96646.59;;;23.30;66.85
16094;BME280;8151;47.824;12.092;2022-07-04T07:36:26;96640.59;;;23.28;66.55
16094;BME280;8151;47.824;12.092;2022-07-04T07:38:55;96646.50;;;23.25;66.48
16094;BME280;8151;47.824;12.092;2022-07-04T07:41:24;96648.38;;;23.25;66.35
16094;BME280;8151;47.824;12.092;2022-07-04T07:43:52;96646.25;;;23.27;66.14
16094;BME280;8151;47.824;12.092;2022-07-04T07:46:21;96656.13;;;23.21;66.18
16094;BME280;8151;47.824;12.092;2022-07-04T07:48:52;96646.03;;;23.16;66.19
16094;BME280;8151;47.824;12.092;2022-07-04T07:51:20;96659.47;;;23.11;65.91
16094;BME280;8151;47.824;12.092;2022-07-04T07:53:49;96652.06;;;23.07;65.96
16094;BME280;8151;47.824;12.092;2022-07-04T07:56:37;96653.16;;;23.06;65.82
16094;BME280;8151;47.824;12.092;2022-07-04T07:59:06;96646.19;;;23.10;65.46
16094;BME280;8151;47.824;12.092;2022-07-04T08:01:34;96649.81;;;23.15;65.25
16094;BME280;8151;47.824;12.092;2022-07-04T08:04:05;96644.53;;;23.21;65.12
16094;BME280;8151;47.824;12.092;2022-07-04T08:06:51;96641.09;;;23.25;65.13
16094;BME280;8151;47.824;12.092;2022-07-04T08:09:39;96646.44;;;23.37;65.05
16094;BME280;8151;47.824;12.092;2022-07-04T08:12:09;96641.94;;;23.43;64.96
16094;BME280;8151;47.824;12.092;2022-07-04T08:14:37;96638.03;;;23.50;64.79
16094;BME280;8151;47.824;12.092;2022-07-04T08:17:06;96643.34;;;23.62;64.82
16094;BME280;8151;47.824;12.092;2022-07-04T08:19:36;96640.56;;;23.74;64.52
16094;BME280;8151;47.824;12.092;2022-07-04T08:22:05;96635.69;;;23.88;64.07
16094;BME280;8151;47.824;12.092;2022-07-04T08:24:43;96627.47;;;24.00;64.04
16094;BME280;8151;47.824;12.092;2022-07-04T08:27:12;96616.31;;;24.13;63.54
16094;BME280;8151;47.824;12.092;2022-07-04T08:29:41;96617.31;;;24.24;63.03
16094;BME280;8151;47.824;12.092;2022-07-04T08:32:11;96614.16;;;24.32;62.77
16094;BME280;8151;47.824;12.092;2022-07-04T08:34:41;96614.81;;;24.39;62.28
16094;BME280;8151;47.824;12.092;2022-07-04T08:37:11;96606.16;;;24.42;61.85
16094;BME280;8151;47.824;12.092;2022-07-04T08:39:39;96614.47;;;24.35;62.11
16094;BME280;8151;47.824;12.092;2022-07-04T08:42:19;96605.97;;;24.27;62.40
16094;BME280;8151;47.824;12.092;2022-07-04T08:44:49;96617.47;;;24.17;62.48
16094;BME280;8151;47.824;12.092;2022-07-04T08:47:20;96612.25;;;24.10;62.62
16094;BME280;8151;47.824;12.092;2022-07-04T08:49:56;96607.28;;;24.02;62.79
16094;BME280;8151;47.824;12.092;2022-07-04T08:52:34;96584.75;;;23.96;62.84
16094;BME280;8151;47.824;12.092;2022-07-04T08:55:05;96584.47;;;23.98;62.47
16094;BME280;8151;47.824;12.092;2022-07-04T08:57:51;96578.25;;;23.97;62.32
16094;BME280;8151;47.824;12.092;2022-07-04T09:00:39;96570.97;;;23.98;62.72
16094;BME280;8151;47.824;12.092;2022-07-04T09:03:09;96584.47;;;23.98;63.65
16094;BME280;8151;47.824;12.092;2022-07-04T09:05:39;96596.94;;;23.99;64.11
16094;BME280;8151;47.824;12.092;2022-07-04T09:08:08;96597.38;;;23.91;64.98
16094;BME280;8151;47.824;12.092;2022-07-04T09:10:37;96602.13;;;23.84;65.93
16094;BME280;8151;47.824;12.092;2022-07-04T09:13:07;96597.66;;;23.77;66.48
16094;BME280;8151;47.824;12.092;2022-07-04T09:15:39;96595.56;;;23.80;66.69
16094;BME280;8151;47.824;12.092;2022-07-04T09:18:20;96597.78;;;23.83;67.23
16094;BME280;8151;47.824;12.092;2022-07-04T09:20:50;96606.13;;;23.81;67.79
16094;BME280;8151;47.824;12.092;2022-07-04T09:23:20;96607.09;;;23.75;68.24
16094;BME280;8151;47.824;12.092;2022-07-04T09:26:09;96606.81;;;23.76;68.84
16094;BME280;8151;47.824;12.092;2022-07-04T09:28:40;96610.97;;;23.79;68.58
16094;BME280;8151;47.824;12.092;2022-07-04T09:31:16;96608.00;;;23.81;68.19
16094;BME280;8151;47.824;12.092;2022-07-04T09:33:53;96603.69;;;23.80;67.93
16094;BME280;8151;47.824;12.092;2022-07-04T09:36:24;96604.25;;;23.82;67.44
16094;BME280;8151;47.824;12.092;2022-07-04T09:39:13;96603.34;;;23.93;67.40
16094;BME280;8151;47.824;12.092;2022-07-04T09:41:56;96603.47;;;24.03;66.88
16094;BME280;8151;47.824;12.092;2022-07-04T09:44:27;96613.88;;;24.11;66.59
16094;BME280;8151;47.824;12.092;2022-07-04T09:46:56;96620.16;;;24.17;66.72
16094;BME280;8151;47.824;12.092;2022-07-04T09:49:25;96620.72;;;24.19;66.52
16094;BME280;8151;47.824;12.092;2022-07-04T09:51:55;96613.19;;;24.21;66.98
16094;BME280;8151;47.824;12.092;2022-07-04T09:54:26;96607.53;;;24.23;66.58
16094;BME280;8151;47.824;12.092;2022-07-04T09:57:00;96605.72;;;24.28;66.43
16094;BME280;8151;47.824;12.092;2022-07-04T09:59:30;96595.31;;;24.37;66.12
16094;BME280;8151;47.824;12.092;2022-07-04T10:02:07;96596.47;;;24.46;66.16
16094;BME280;8151;47.824;12.092;2022-07-04T10:04:42;96599.06;;;24.53;65.70
16094;BME280;8151;47.824;12.092;2022-07-04T10:07:29;96603.13;;;24.55;65.53
16094;BME280;8151;47.824;12.092;2022-07-04T10:09:58;96593.44;;;24.60;65.48
16094;BME280;8151;47.824;12.092;2022-07-04T10:12:31;96590.81;;;24.65;65.00
16094;BME280;8151;47.824;12.092;2022-07-04T10:14:59;96592.50;;;24.71;64.89
16094;BME280;8151;47.824;12.092;2022-07-04T10:17:28;96592.28;;;24.77;65.02
16094;BME280;8151;47.824;12.092;2022-07-04T10:19:56;96602.38;;;24.82;64.92
16094;BME280;8151;47.824;12.092;2022-07-04T10:22:27;96599.41;;;24.84;65.58
16094;BME280;8151;47.824;12.092;2022-07-04T10:24:56;96598.56;;;24.83;66.04
16094;BME280;8151;47.824;12.092;2022-07-04T10:27:24;96594.00;;;24.84;66.18
16094;BME280;8151;47.824;12.092;2022-07-04T10:29:53;96596.19;;;24.87;66.54
16094;BME280;8151;47.824;12.092;2022-07-04T10:32:22;96602.16;;;24.89;66.84
16094;BME280;8151;47.824;12.092;2022-07-04T10:34:51;96601.34;;;24.88;67.27
16094;BME280;8151;47.824;12.092;2022-07-04T10:37:19;96609.22;;;24.90;67.75
16094;BME280;8151;47.824;12.092;2022-07-04T10:39:49;96614.88;;;24.88;68.00
16094;BME280;8151;47.824;12.092;2022-07-04T10:42:25;96611.06;;;24.84;68.29
16094;BME280;8151;47.824;12.092;2022-07-04T10:45:00;96609.97;;;24.85;68.10
16094;BME280;8151;47.824;12.092;2022-07-04T10:47:29;96607.25;;;24.85;67.74
16094;BME280;8151;47.824;12.092;2022-07-04T10:49:58;96602.69;;;24.86;67.68
16094;BME280;8151;47.824;12.092;2022-07-04T10:52:26;96595.38;;;24.86;67.64
16094;BME280;8151;47.824;12.092;2022-07-04T10:54:58;96587.25;;;24.86;67.50
16094;BME280;8151;47.824;12.092;2022-07-04T10:57:38;96585.91;;;24.89;67.10
16094;BME280;8151;47.824;12.092;2022-07-04T11:00:09;96580.00;;;24.92;67.07
16094;BME280;8151;47.824;12.092;2022-07-04T11:02:38;96579.22;;;24.96;67.21
16094;BME280;8151;47.824;12.092;2022-07-04T11:05:08;96572.84;;;25.08;66.80
16094;BME280;8151;47.824;12.092;2022-07-04T11:07:59;96574.59;;;25.19;66.08
16094;BME280;8151;47.824;12.092;2022-07-04T11:10:31;96567.16;;;25.31;65.85
16094;BME280;8151;47.824;12.092;2022-07-04T11:13:06;96571.06;;;25.46;65.56
16094;BME280;8151;47.824;12.092;2022-07-04T11:15:58;96559.81;;;25.59;65.02
16094;BME280;8151;47.824;12.092;2022-07-04T11:18:28;96557.22;;;25.74;65.04
16094;BME280;8151;47.824;12.092;2022-07-04T11:20:57;96556.81;;;25.93;64.91
16094;BME280;8151;47.824;12.092;2022-07-04T11:23:26;96557.16;;;26.07;64.12
16094;BME280;8151;47.824;12.092;2022-07-04T11:25:57;96554.22;;;26.13;63.78
16094;BME280;8151;47.824;12.092;2022-07-04T11:28:26;96551.81;;;26.22;63.55
16094;BME280;8151;47.824;12.092;2022-07-04T11:31:13;96546.16;;;26.29;63.02
16094;BME280;8151;47.824;12.092;2022-07-04T11:33:43;96538.56;;;26.36;62.94
16094;BME280;8151;47.824;12.092;2022-07-04T11:36:14;96534.00;;;26.42;62.80
16094;BME280;8151;47.824;12.092;2022-07-04T11:38:52;96538.63;;;26.46;62.89
16094;BME280;8151;47.824;12.092;2022-07-04T11:41:26;96534.03;;;26.47;62.61
16094;BME280;8151;47.824;12.092;2022-07-04T11:44:14;96533.75;;;26.48;62.37
16094;BME280;8151;47.824;12.092;2022-07-04T11:47:11;96529.44;;;26.52;62.20
16094;BME280;8151;47.824;12.092;2022-07-04T11:49:45;96534.31;;;26.56;61.98
16094;BME280;8151;47.824;12.092;2022-07-04T11:52:15;96527.56;;;26.58;61.86
16094;BME280;8151;47.824;12.092;2022-07-04T11:55:03;96518.63;;;26.63;61.72
16094;BME280;8151;47.824;12.092;2022-07-04T11:57:35;96513.22;;;26.68;61.92
16094;BME280;8151;47.824;12.092;2022-07-04T12:00:07;96515.94;;;26.73;61.71
16094;BME280;8151;47.824;12.092;2022-07-04T12:02:44;96506.16;;;26.77;61.52
16094;BME280;8151;47.824;12.092;2022-07-04T12:05:13;96510.25;;;26.80;61.11
16094;BME280;8151;47.824;12.092;2022-07-04T12:07:44;96511.34;;;26.84;60.93
16094;BME280;8151;47.824;12.092;2022-07-04T12:10:34;96504.03;;;26.95;60.78
16094;BME280;8151;47.824;12.092;2022-07-04T12:13:06;96499.16;;;27.02;60.91
16094;BME280;8151;47.824;12.092;2022-07-04T12:15:37;96496.97;;;27.04;60.81
16094;BME280;8151;47.824;12.092;2022-07-04T12:18:15;96491.56;;;27.04;60.35
16094;BME280;8151;47.824;12.092;2022-07-04T12:20:44;96491.28;;;27.05;60.24
16094;BME280;8151;47.824;12.092;2022-07-04T12:23:14;96492.38;;;27.09;60.13
16094;BME280;8151;47.824;12.092;2022-07-04T12:25:44;96488.56;;;27.21;59.71
16094;BME280;8151;47.824;12.092;2022-07-04T12:28:17;96489.97;;;27.34;59.18
16094;BME280;8151;47.824;12.092;2022-07-04T12:30:50;96484.53;;;27.44;58.65
16094;BME280;8151;47.824;12.092;2022-07-04T12:33:20;96486.41;;;27.54;58.35
16094;BME280;8151;47.824;12.092;2022-07-04T12:35:50;96482.03;;;27.68;58.09
16094;BME280;8151;47.824;12.092;2022-07-04T12:38:21;96475.78;;;27.73;57.75
16094;BME280;8151;47.824;12.092;2022-07-04T12:40:55;96471.41;;;27.77;57.50
16094;BME280;8151;47.824;12.092;2022-07-04T12:43:43;96479.53;;;27.87;57.06
16094;BME280;8151;47.824;12.092;2022-07-04T12:46:14;96476.81;;;27.97;56.53
16094;BME280;8151;47.824;12.092;2022-07-04T12:48:54;96481.66;;;28.16;56.12
16094;BME280;8151;47.824;12.092;2022-07-04T12:51:24;96484.91;;;28.23;56.39
16094;BME280;8151;47.824;12.092;2022-07-04T12:53:54;96471.78;;;28.30;56.17
16094;BME280;8151;47.824;12.092;2022-07-04T12:56:30;96475.88;;;28.27;55.44
16094;BME280;8151;47.824;12.092;2022-07-04T12:59:02;96474.56;;;28.20;55.32
16094;BME280;8151;47.824;12.092;2022-07-04T13:01:38;96463.69;;;28.15;55.54
16094;BME280;8151;47.824;12.092;2022-07-04T13:04:08;96468.59;;;28.13;55.48
16094;BME280;8151;47.824;12.092;2022-07-04T13:06:38;96455.84;;;28.08;55.47
16094;BME280;8151;47.824;12.092;2022-07-04T13:09:07;96461.00;;;28.10;55.38
16094;BME280;8151;47.824;12.092;2022-07-04T13:11:36;96444.69;;;28.10;55.38
16094;BME280;8151;47.824;12.092;2022-07-04T13:14:24;96444.94;;;28.13;54.79
16094;BME280;8151;47.824;12.092;2022-07-04T13:16:52;96446.81;;;28.18;54.77
16094;BME280;8151;47.824;12.092;2022-07-04T13:19:21;96448.41;;;28.29;54.81